sensor_id;sensor_type;location;lat;lon;timestamp;temperature;humidity
18105;DHT22;9179;50.968;3.134;2023-02-01T00:00:31;8.90;99.90
18105;DHT22;9179;50.968;3.134;2023-02-01T00:03:01;8.80;99.90
18105;DHT22;9179;50.968;3.134;2023-02-01T00:05:28;8.70;99.90
18105;DHT22;9179;50.968;3.134;2023-02-01T00:07:55;8.60;99.90
18105;DHT22;9179;50.968;3.134;2023-02-01T00:10:22;8.60;99.90
18105;DHT22;9179;50.968;3.134;2023-02-01T00:12:49;8.60;99.90
18105;DHT22;9179;50.968;3.134;2023-02-01T00:20:28;8.60;99.90
18105;DHT22;9179;50.968;3.134;2023-02-01T00:22:55;8.50;99.90
18105;DHT22;9179;50.968;3.134;2023-02-01T00:25:22;8.30;99.90
18105;DHT22;9179;50.968;3.134;2023-02-01T00:27:49;8.10;99.90
18105;DHT22;9179;50.968;3.134;2023-02-01T00:30:17;7.90;99.90
18105;DHT22;9179;50.968;3.134;2023-02-01T00:32:44;7.70;99.90
18105;DHT22;9179;50.968;3.134;2023-02-01T00:35:11;7.50;99.90
18105;DHT22;9179;50.968;3.134;2023-02-01T00:37:39;7.30;99.90
18105;DHT22;9179;50.968;3.134;2023-02-01T00:40:07;7.20;99.90
18105;DHT22;9179;50.968;3.134;2023-02-01T00:42:34;7.10;99.90
18105;DHT22;9179;50.968;3.134;2023-02-01T00:45:01;7.00;99.90
18105;DHT22;9179;50.968;3.134;2023-02-01T00:47:28;7.00;99.90
18105;DHT22;9179;50.968;3.134;2023-02-01T00:49:56;6.90;99.90
18105;DHT22;9179;50.968;3.134;2023-02-01T00:52:22;6.90;99.90
18105;DHT22;9179;50.968;3.134;2023-02-01T00:54:51;6.90;99.90
18105;DHT22;9179;50.968;3.134;2023-02-01T00:57:18;6.90;99.90
18105;DHT22;9179;50.968;3.134;2023-02-01T00:59:45;6.80;99.90
18105;DHT22;9179;50.968;3.134;2023-02-01T01:02:11;6.80;99.90
18105;DHT22;9179;50.968;3.134;2023-02-01T01:04:39;6.80;99.90
18105;DHT22;9179;50.968;3.134;2023-02-01T01:07:06;6.80;99.90
18105;DHT22;9179;50.968;3.134;2023-02-01T01:09:34;6.90;99.90
18105;DHT22;9179;50.968;3.134;2023-02-01T01:12:02;6.90;99.90
18105;DHT22;9179;50.968;3.134;2023-02-01T01:14:29;7.00;99.90
18105;DHT22;9179;50.968;3.134;2023-02-01T01:16:56;7.20;99.90
18105;DHT22;9179;50.968;3.134;2023-02-01T01:19:23;7.40;99.90
18105;DHT22;9179;50.968;3.134;2023-02-01T01:21:50;7.40;99.90
18105;DHT22;9179;50.968;3.134;2023-02-01T01:24:17;7.40;99.90
18105;DHT22;9179;50.968;3.134;2023-02-01T01:26:44;7.30;99.90
18105;DHT22;9179;50.968;3.134;2023-02-01T01:29:12;7.30;99.90
18105;DHT22;9179;50.968;3.134;2023-02-01T01:31:39;7.30;99.90
18105;DHT22;9179;50.968;3.134;2023-02-01T01:34:06;7.30;99.90
18105;DHT22;9179;50.968;3.134;2023-02-01T01:36:33;7.30;99.90
18105;DHT22;9179;50.968;3.134;2023-02-01T01:39:00;7.30;99.90
18105;DHT22;9179;50.968;3.134;2023-02-01T01:41:30;7.40;99.90
18105;DHT22;9179;50.968;3.134;2023-02-01T01:43:59;7.60;99.90
18105;DHT22;9179;50.968;3.134;2023-02-01T01:46:29;7.70;99.90
18105;DHT22;9179;50.968;3.134;2023-02-01T01:49:02;7.70;99.90
18105;DHT22;9179;50.968;3.134;2023-02-01T01:51:31;7.60;99.90
18105;DHT22;9179;50.968;3.134;2023-02-01T01:54:02;7.50;99.90
18105;DHT22;9179;50.968;3.134;2023-02-01T01:56:32;7.30;99.90
18105;DHT22;9179;50.968;3.134;2023-02-01T01:59:00;7.20;99.90
18105;DHT22;9179;50.968;3.134;2023-02-01T02:01:29;7.20;99.90
18105;DHT22;9179;50.968;3.134;2023-02-01T02:03:57;7.20;99.90
18105;DHT22;9179;50.968;3.134;2023-02-01T02:06:35;7.20;99.90
18105;DHT22;9179;50.968;3.134;2023-02-01T02:09:03;7.20;99.90
18105;DHT22;9179;50.968;3.134;2023-02-01T02:11:30;7.20;99.90
18105;DHT22;9179;50.968;3.134;2023-02-01T02:13:58;7.30;99.90
18105;DHT22;9179;50.968;3.134;2023-02-01T02:20:02;7.30;99.90
18105;DHT22;9179;50.968;3.134;2023-02-01T02:22:54;7.30;99.90
18105;DHT22;9179;50.968;3.134;2023-02-01T02:25:54;7.30;99.90
18105;DHT22;9179;50.968;3.134;2023-02-01T02:28:42;7.30;99.90
18105;DHT22;9179;50.968;3.134;2023-02-01T02:31:40;7.40;99.90
18105;DHT22;9179;50.968;3.134;2023-02-01T02:34:18;7.40;99.90
18105;DHT22;9179;50.968;3.134;2023-02-01T02:36:59;7.40;99.90
18105;DHT22;9179;50.968;3.134;2023-02-01T02:39:38;7.30;99.90
18105;DHT22;9179;50.968;3.134;2023-02-01T02:42:13;7.30;99.90
18105;DHT22;9179;50.968;3.134;2023-02-01T02:45:02;7.10;99.90
18105;DHT22;9179;50.968;3.134;2023-02-01T02:47:53;7.00;99.90
18105;DHT22;9179;50.968;3.134;2023-02-01T02:50:26;6.90;99.90
18105;DHT22;9179;50.968;3.134;2023-02-01T02:53:15;6.80;99.90
18105;DHT22;9179;50.968;3.134;2023-02-01T02:56:02;6.80;99.90
18105;DHT22;9179;50.968;3.134;2023-02-01T02:58:48;6.70;99.90
18105;DHT22;9179;50.968;3.134;2023-02-01T03:01:34;6.70;99.90
18105;DHT22;9179;50.968;3.134;2023-02-01T03:09:32;6.60;99.90
18105;DHT22;9179;50.968;3.134;2023-02-01T03:12:04;6.70;99.90
18105;DHT22;9179;50.968;3.134;2023-02-01T03:14:54;6.70;99.90
18105;DHT22;9179;50.968;3.134;2023-02-01T03:17:28;6.70;99.90
18105;DHT22;9179;50.968;3.134;2023-02-01T03:19:59;6.80;99.90
18105;DHT22;9179;50.968;3.134;2023-02-01T03:22:28;6.80;99.90
18105;DHT22;9179;50.968;3.134;2023-02-01T03:25:04;6.80;99.90
18105;DHT22;9179;50.968;3.134;2023-02-01T03:27:35;6.90;99.90
18105;DHT22;9179;50.968;3.134;2023-02-01T03:30:09;6.90;99.90
18105;DHT22;9179;50.968;3.134;2023-02-01T03:32:40;7.10;99.90
18105;DHT22;9179;50.968;3.134;2023-02-01T03:35:40;7.10;99.90
18105;DHT22;9179;50.968;3.134;2023-02-01T03:38:17;7.10;99.90
18105;DHT22;9179;50.968;3.134;2023-02-01T03:40:49;7.10;99.90
18105;DHT22;9179;50.968;3.134;2023-02-01T03:43:19;7.00;99.90
18105;DHT22;9179;50.968;3.134;2023-02-01T03:45:52;7.10;99.90
18105;DHT22;9179;50.968;3.134;2023-02-01T03:48:22;7.10;99.90
18105;DHT22;9179;50.968;3.134;2023-02-01T03:50:55;7.10;99.90
18105;DHT22;9179;50.968;3.134;2023-02-01T03:53:24;7.00;99.90
18105;DHT22;9179;50.968;3.134;2023-02-01T03:55:53;6.90;99.90
18105;DHT22;9179;50.968;3.134;2023-02-01T03:58:22;6.90;99.90
18105;DHT22;9179;50.968;3.134;2023-02-01T04:00:52;6.90;99.90
18105;DHT22;9179;50.968;3.134;2023-02-01T04:03:20;6.80;99.90
18105;DHT22;9179;50.968;3.134;2023-02-01T04:05:48;6.80;99.90
18105;DHT22;9179;50.968;3.134;2023-02-01T04:08:18;6.80;99.90
18105;DHT22;9179;50.968;3.134;2023-02-01T04:10:45;6.70;99.90
18105;DHT22;9179;50.968;3.134;2023-02-01T04:13:12;6.70;99.90
18105;DHT22;9179;50.968;3.134;2023-02-01T04:15:39;6.70;99.90
18105;DHT22;9179;50.968;3.134;2023-02-01T04:18:06;6.70;99.90
18105;DHT22;9179;50.968;3.134;2023-02-01T04:20:33;6.70;99.90
18105;DHT22;9179;50.968;3.134;2023-02-01T04:23:00;6.60;99.90
18105;DHT22;9179;50.968;3.134;2023-02-01T04:25:30;6.60;99.90
18105;DHT22;9179;50.968;3.134;2023-02-01T04:27:57;6.50;99.90
18105;DHT22;9179;50.968;3.134;2023-02-01T04:30:25;6.50;99.90
18105;DHT22;9179;50.968;3.134;2023-02-01T04:32:52;6.50;99.90
18105;DHT22;9179;50.968;3.134;2023-02-01T04:35:18;6.50;99.90
18105;DHT22;9179;50.968;3.134;2023-02-01T04:37:45;6.50;99.90
18105;DHT22;9179;50.968;3.134;2023-02-01T04:40:13;6.50;99.90
18105;DHT22;9179;50.968;3.134;2023-02-01T04:42:41;6.50;99.90
18105;DHT22;9179;50.968;3.134;2023-02-01T04:45:08;6.60;99.90
18105;DHT22;9179;50.968;3.134;2023-02-01T04:47:35;6.60;99.90
18105;DHT22;9179;50.968;3.134;2023-02-01T04:50:03;6.60;99.90
18105;DHT22;9179;50.968;3.134;2023-02-01T04:52:31;6.60;99.90
18105;DHT22;9179;50.968;3.134;2023-02-01T04:54:58;6.60;99.90
18105;DHT22;9179;50.968;3.134;2023-02-01T04:57:25;6.60;99.90
18105;DHT22;9179;50.968;3.134;2023-02-01T04:59:54;6.60;99.90
18105;DHT22;9179;50.968;3.134;2023-02-01T05:02:21;6.60;99.90
18105;DHT22;9179;50.968;3.134;2023-02-01T05:04:48;6.50;99.90
18105;DHT22;9179;50.968;3.134;2023-02-01T05:07:16;6.50;99.90
18105;DHT22;9179;50.968;3.134;2023-02-01T05:09:43;6.40;99.90
18105;DHT22;9179;50.968;3.134;2023-02-01T05:12:10;6.40;99.90
18105;DHT22;9179;50.968;3.134;2023-02-01T05:14:56;6.40;99.90
18105;DHT22;9179;50.968;3.134;2023-02-01T05:17:23;6.40;99.90
18105;DHT22;9179;50.968;3.134;2023-02-01T05:19:50;6.40;99.90
18105;DHT22;9179;50.968;3.134;2023-02-01T05:22:17;6.50;99.90
18105;DHT22;9179;50.968;3.134;2023-02-01T05:24:44;6.50;99.90
18105;DHT22;9179;50.968;3.134;2023-02-01T05:27:11;6.50;99.90
18105;DHT22;9179;50.968;3.134;2023-02-01T05:29:38;6.60;99.90
18105;DHT22;9179;50.968;3.134;2023-02-01T05:32:08;6.60;99.90
18105;DHT22;9179;50.968;3.134;2023-02-01T05:34:36;6.60;99.90
18105;DHT22;9179;50.968;3.134;2023-02-01T05:37:03;6.60;99.90
18105;DHT22;9179;50.968;3.134;2023-02-01T05:39:29;6.40;99.90
18105;DHT22;9179;50.968;3.134;2023-02-01T05:41:56;6.30;99.90
18105;DHT22;9179;50.968;3.134;2023-02-01T05:44:23;6.20;99.90
18105;DHT22;9179;50.968;3.134;2023-02-01T05:46:51;6.20;99.90
18105;DHT22;9179;50.968;3.134;2023-02-01T05:49:20;6.10;99.90
18105;DHT22;9179;50.968;3.134;2023-02-01T05:51:47;6.10;99.90
18105;DHT22;9179;50.968;3.134;2023-02-01T05:54:14;6.10;99.90
18105;DHT22;9179;50.968;3.134;2023-02-01T05:56:40;6.00;99.90
18105;DHT22;9179;50.968;3.134;2023-02-01T05:59:08;6.00;99.90
18105;DHT22;9179;50.968;3.134;2023-02-01T06:01:36;6.00;99.90
18105;DHT22;9179;50.968;3.134;2023-02-01T06:04:03;6.00;99.90
18105;DHT22;9179;50.968;3.134;2023-02-01T06:06:31;6.00;99.90
18105;DHT22;9179;50.968;3.134;2023-02-01T06:08:58;6.00;99.90
18105;DHT22;9179;50.968;3.134;2023-02-01T06:11:25;6.00;99.90
18105;DHT22;9179;50.968;3.134;2023-02-01T06:13:53;6.00;99.90
18105;DHT22;9179;50.968;3.134;2023-02-01T06:16:21;6.00;99.90
18105;DHT22;9179;50.968;3.134;2023-02-01T06:18:48;6.00;99.90
18105;DHT22;9179;50.968;3.134;2023-02-01T06:21:15;5.90;99.90
18105;DHT22;9179;50.968;3.134;2023-02-01T06:23:50;6.00;99.90
18105;DHT22;9179;50.968;3.134;2023-02-01T06:26:17;6.00;99.90
18105;DHT22;9179;50.968;3.134;2023-02-01T06:28:44;6.00;99.90
18105;DHT22;9179;50.968;3.134;2023-02-01T06:31:12;6.00;99.90
18105;DHT22;9179;50.968;3.134;2023-02-01T06:33:39;6.00;99.90
18105;DHT22;9179;50.968;3.134;2023-02-01T06:36:07;6.00;99.90
18105;DHT22;9179;50.968;3.134;2023-02-01T06:38:36;5.90;99.90
18105;DHT22;9179;50.968;3.134;2023-02-01T06:41:05;5.90;99.90
18105;DHT22;9179;50.968;3.134;2023-02-01T06:43:33;5.90;99.90
18105;DHT22;9179;50.968;3.134;2023-02-01T06:46:00;6.00;99.90
18105;DHT22;9179;50.968;3.134;2023-02-01T06:48:27;6.00;99.90
18105;DHT22;9179;50.968;3.134;2023-02-01T06:50:55;6.10;99.90
18105;DHT22;9179;50.968;3.134;2023-02-01T06:53:22;6.20;99.90
18105;DHT22;9179;50.968;3.134;2023-02-01T06:55:53;6.20;99.90
18105;DHT22;9179;50.968;3.134;2023-02-01T06:58:21;6.30;99.90
18105;DHT22;9179;50.968;3.134;2023-02-01T07:00:48;6.30;99.90
18105;DHT22;9179;50.968;3.134;2023-02-01T07:03:16;6.30;99.90
18105;DHT22;9179;50.968;3.134;2023-02-01T07:05:43;6.30;99.90
18105;DHT22;9179;50.968;3.134;2023-02-01T07:08:10;6.30;99.90
18105;DHT22;9179;50.968;3.134;2023-02-01T07:10:37;6.30;99.90
18105;DHT22;9179;50.968;3.134;2023-02-01T07:13:05;6.30;99.90
18105;DHT22;9179;50.968;3.134;2023-02-01T07:15:33;6.30;99.90
18105;DHT22;9179;50.968;3.134;2023-02-01T07:18:00;6.40;99.90
18105;DHT22;9179;50.968;3.134;2023-02-01T07:20:27;6.40;99.90
18105;DHT22;9179;50.968;3.134;2023-02-01T07:22:55;6.50;99.90
18105;DHT22;9179;50.968;3.134;2023-02-01T07:25:22;6.60;99.90
18105;DHT22;9179;50.968;3.134;2023-02-01T07:27:49;6.80;99.90
18105;DHT22;9179;50.968;3.134;2023-02-01T07:30:17;6.90;99.90
18105;DHT22;9179;50.968;3.134;2023-02-01T07:32:45;7.00;99.90
18105;DHT22;9179;50.968;3.134;2023-02-01T07:35:12;7.10;99.90
18105;DHT22;9179;50.968;3.134;2023-02-01T07:37:40;7.20;99.90
18105;DHT22;9179;50.968;3.134;2023-02-01T07:40:08;7.30;99.90
18105;DHT22;9179;50.968;3.134;2023-02-01T07:42:35;7.50;99.90
18105;DHT22;9179;50.968;3.134;2023-02-01T07:45:03;7.60;99.90
18105;DHT22;9179;50.968;3.134;2023-02-01T07:47:30;7.60;99.90
18105;DHT22;9179;50.968;3.134;2023-02-01T07:49:58;7.70;99.90
18105;DHT22;9179;50.968;3.134;2023-02-01T07:52:27;7.80;99.90
18105;DHT22;9179;50.968;3.134;2023-02-01T07:54:55;7.80;99.90
18105;DHT22;9179;50.968;3.134;2023-02-01T07:57:22;7.90;99.90
18105;DHT22;9179;50.968;3.134;2023-02-01T07:59:48;7.90;99.90
18105;DHT22;9179;50.968;3.134;2023-02-01T08:02:44;7.90;99.90
18105;DHT22;9179;50.968;3.134;2023-02-01T08:05:13;8.00;99.90
18105;DHT22;9179;50.968;3.134;2023-02-01T08:07:40;8.10;99.90
18105;DHT22;9179;50.968;3.134;2023-02-01T08:10:07;8.10;99.90
18105;DHT22;9179;50.968;3.134;2023-02-01T08:12:36;8.10;99.90
18105;DHT22;9179;50.968;3.134;2023-02-01T08:15:03;8.20;99.90
18105;DHT22;9179;50.968;3.134;2023-02-01T08:17:30;8.30;99.90
18105;DHT22;9179;50.968;3.134;2023-02-01T08:19:57;8.30;99.90
18105;DHT22;9179;50.968;3.134;2023-02-01T08:22:25;8.40;99.90
18105;DHT22;9179;50.968;3.134;2023-02-01T08:24:52;8.50;99.90
18105;DHT22;9179;50.968;3.134;2023-02-01T08:27:26;8.50;99.90
18105;DHT22;9179;50.968;3.134;2023-02-01T08:29:53;8.60;99.90
18105;DHT22;9179;50.968;3.134;2023-02-01T08:32:20;8.70;99.90
18105;DHT22;9179;50.968;3.134;2023-02-01T08:34:47;8.70;99.90
18105;DHT22;9179;50.968;3.134;2023-02-01T08:37:14;8.70;99.90
18105;DHT22;9179;50.968;3.134;2023-02-01T08:39:43;8.80;99.90
18105;DHT22;9179;50.968;3.134;2023-02-01T08:42:11;8.80;99.90
18105;DHT22;9179;50.968;3.134;2023-02-01T08:44:56;8.90;99.90
18105;DHT22;9179;50.968;3.134;2023-02-01T08:47:23;9.00;99.90
18105;DHT22;9179;50.968;3.134;2023-02-01T08:49:50;9.10;99.90
18105;DHT22;9179;50.968;3.134;2023-02-01T08:52:18;9.20;99.90
18105;DHT22;9179;50.968;3.134;2023-02-01T08:54:47;9.20;99.90
18105;DHT22;9179;50.968;3.134;2023-02-01T08:57:14;9.20;99.90
18105;DHT22;9179;50.968;3.134;2023-02-01T08:59:41;9.30;99.90
18105;DHT22;9179;50.968;3.134;2023-02-01T09:02:12;9.30;99.90
18105;DHT22;9179;50.968;3.134;2023-02-01T09:04:39;9.50;99.90
18105;DHT22;9179;50.968;3.134;2023-02-01T09:07:07;9.50;99.90
18105;DHT22;9179;50.968;3.134;2023-02-01T09:09:33;9.60;99.90
18105;DHT22;9179;50.968;3.134;2023-02-01T09:12:02;9.60;99.90
18105;DHT22;9179;50.968;3.134;2023-02-01T09:14:29;9.60;99.90
18105;DHT22;9179;50.968;3.134;2023-02-01T09:16:56;9.60;99.90
18105;DHT22;9179;50.968;3.134;2023-02-01T09:19:23;9.70;99.90
18105;DHT22;9179;50.968;3.134;2023-02-01T09:21:50;9.70;99.90
18105;DHT22;9179;50.968;3.134;2023-02-01T09:24:17;9.70;99.90
18105;DHT22;9179;50.968;3.134;2023-02-01T09:26:44;9.80;99.90
18105;DHT22;9179;50.968;3.134;2023-02-01T09:29:12;9.80;99.90
18105;DHT22;9179;50.968;3.134;2023-02-01T09:31:40;10.00;99.90
18105;DHT22;9179;50.968;3.134;2023-02-01T09:34:07;10.10;99.90
18105;DHT22;9179;50.968;3.134;2023-02-01T09:36:34;10.20;99.90
18105;DHT22;9179;50.968;3.134;2023-02-01T09:39:02;10.30;99.90
18105;DHT22;9179;50.968;3.134;2023-02-01T09:41:45;10.40;99.90
18105;DHT22;9179;50.968;3.134;2023-02-01T09:44:37;10.70;99.90
18105;DHT22;9179;50.968;3.134;2023-02-01T09:47:11;10.80;99.90
18105;DHT22;9179;50.968;3.134;2023-02-01T09:49:48;11.20;99.90
18105;DHT22;9179;50.968;3.134;2023-02-01T09:52:19;11.50;99.90
18105;DHT22;9179;50.968;3.134;2023-02-01T09:54:52;11.40;99.90
18105;DHT22;9179;50.968;3.134;2023-02-01T09:57:25;11.50;99.90
18105;DHT22;9179;50.968;3.134;2023-02-01T09:59:57;11.40;99.90
18105;DHT22;9179;50.968;3.134;2023-02-01T10:02:28;11.10;99.90
18105;DHT22;9179;50.968;3.134;2023-02-01T10:04:58;11.00;99.90
18105;DHT22;9179;50.968;3.134;2023-02-01T10:07:34;11.10;99.90
18105;DHT22;9179;50.968;3.134;2023-02-01T10:10:08;11.30;99.90
18105;DHT22;9179;50.968;3.134;2023-02-01T10:12:53;11.70;99.90
18105;DHT22;9179;50.968;3.134;2023-02-01T10:15:36;11.80;99.90
18105;DHT22;9179;50.968;3.134;2023-02-01T10:18:29;11.90;99.90
18105;DHT22;9179;50.968;3.134;2023-02-01T10:21:04;11.80;99.90
18105;DHT22;9179;50.968;3.134;2023-02-01T10:23:58;12.00;99.90
18105;DHT22;9179;50.968;3.134;2023-02-01T10:26:33;12.20;99.90
18105;DHT22;9179;50.968;3.134;2023-02-01T10:29:03;12.40;99.90
18105;DHT22;9179;50.968;3.134;2023-02-01T10:31:35;12.20;99.90
18105;DHT22;9179;50.968;3.134;2023-02-01T10:34:10;12.10;99.90
18105;DHT22;9179;50.968;3.134;2023-02-01T10:36:42;11.90;99.90
18105;DHT22;9179;50.968;3.134;2023-02-01T10:39:14;11.80;99.90
18105;DHT22;9179;50.968;3.134;2023-02-01T10:41:42;11.80;99.90
18105;DHT22;9179;50.968;3.134;2023-02-01T10:44:13;11.90;99.90
18105;DHT22;9179;50.968;3.134;2023-02-01T10:46:42;11.90;99.90
18105;DHT22;9179;50.968;3.134;2023-02-01T10:49:13;11.90;99.90
18105;DHT22;9179;50.968;3.134;2023-02-01T10:51:44;11.90;99.90
18105;DHT22;9179;50.968;3.134;2023-02-01T10:54:17;11.80;99.90
18105;DHT22;9179;50.968;3.134;2023-02-01T10:56:46;11.80;99.90
18105;DHT22;9179;50.968;3.134;2023-02-01T10:59:17;11.80;99.90
18105;DHT22;9179;50.968;3.134;2023-02-01T11:01:47;11.70;99.90
18105;DHT22;9179;50.968;3.134;2023-02-01T11:04:16;11.70;99.90
18105;DHT22;9179;50.968;3.134;2023-02-01T11:06:47;11.80;99.90
18105;DHT22;9179;50.968;3.134;2023-02-01T11:09:19;11.70;99.90
18105;DHT22;9179;50.968;3.134;2023-02-01T11:11:56;11.80;99.90
18105;DHT22;9179;50.968;3.134;2023-02-01T11:14:32;12.00;99.90
18105;DHT22;9179;50.968;3.134;2023-02-01T11:17:23;12.10;99.90
18105;DHT22;9179;50.968;3.134;2023-02-01T11:19:57;12.10;99.90
18105;DHT22;9179;50.968;3.134;2023-02-01T11:22:26;12.30;99.90
18105;DHT22;9179;50.968;3.134;2023-02-01T11:24:55;12.00;99.90
18105;DHT22;9179;50.968;3.134;2023-02-01T11:27:24;12.00;99.90
18105;DHT22;9179;50.968;3.134;2023-02-01T11:29:55;12.00;99.90
18105;DHT22;9179;50.968;3.134;2023-02-01T11:32:24;12.00;99.90
18105;DHT22;9179;50.968;3.134;2023-02-01T11:34:54;12.10;99.90
18105;DHT22;9179;50.968;3.134;2023-02-01T11:37:26;12.00;99.90
18105;DHT22;9179;50.968;3.134;2023-02-01T11:39:56;12.00;99.90
18105;DHT22;9179;50.968;3.134;2023-02-01T11:42:24;12.10;99.90
18105;DHT22;9179;50.968;3.134;2023-02-01T11:45:18;11.80;99.90
18105;DHT22;9179;50.968;3.134;2023-02-01T11:47:48;11.90;99.90
18105;DHT22;9179;50.968;3.134;2023-02-01T11:50:24;12.00;99.90
18105;DHT22;9179;50.968;3.134;2023-02-01T11:55:56;12.30;99.90
18105;DHT22;9179;50.968;3.134;2023-02-01T11:58:45;12.20;99.90
18105;DHT22;9179;50.968;3.134;2023-02-01T12:01:37;12.20;99.90
18105;DHT22;9179;50.968;3.134;2023-02-01T12:04:25;12.20;99.90
18105;DHT22;9179;50.968;3.134;2023-02-01T12:07:05;11.90;99.90
18105;DHT22;9179;50.968;3.134;2023-02-01T12:09:48;11.80;99.90
18105;DHT22;9179;50.968;3.134;2023-02-01T12:12:21;11.70;99.90
18105;DHT22;9179;50.968;3.134;2023-02-01T12:15:08;11.80;99.90
18105;DHT22;9179;50.968;3.134;2023-02-01T12:17:47;12.10;99.90
18105;DHT22;9179;50.968;3.134;2023-02-01T12:20:28;12.50;99.90
18105;DHT22;9179;50.968;3.134;2023-02-01T12:23:12;12.50;99.90
18105;DHT22;9179;50.968;3.134;2023-02-01T12:26:02;12.60;99.90
18105;DHT22;9179;50.968;3.134;2023-02-01T12:32:12;12.70;99.90
18105;DHT22;9179;50.968;3.134;2023-02-01T12:34:57;12.80;99.90
18105;DHT22;9179;50.968;3.134;2023-02-01T12:37:44;13.00;99.90
18105;DHT22;9179;50.968;3.134;2023-02-01T12:40:25;12.90;99.90
18105;DHT22;9179;50.968;3.134;2023-02-01T12:42:59;12.60;99.90
18105;DHT22;9179;50.968;3.134;2023-02-01T12:45:31;12.30;99.90
18105;DHT22;9179;50.968;3.134;2023-02-01T12:48:08;12.30;99.90
18105;DHT22;9179;50.968;3.134;2023-02-01T12:50:43;12.20;99.90
18105;DHT22;9179;50.968;3.134;2023-02-01T12:53:17;12.00;99.90
18105;DHT22;9179;50.968;3.134;2023-02-01T12:55:49;11.80;99.90
18105;DHT22;9179;50.968;3.134;2023-02-01T12:58:27;11.80;99.90
18105;DHT22;9179;50.968;3.134;2023-02-01T13:01:03;11.90;99.90
18105;DHT22;9179;50.968;3.134;2023-02-01T13:03:38;12.00;99.90
18105;DHT22;9179;50.968;3.134;2023-02-01T13:06:10;12.20;99.90
18105;DHT22;9179;50.968;3.134;2023-02-01T13:08:44;12.30;99.90
18105;DHT22;9179;50.968;3.134;2023-02-01T13:11:16;12.50;99.90
18105;DHT22;9179;50.968;3.134;2023-02-01T13:13:59;12.60;99.90
18105;DHT22;9179;50.968;3.134;2023-02-01T13:16:30;12.60;99.90
18105;DHT22;9179;50.968;3.134;2023-02-01T13:19:03;12.50;99.90
18105;DHT22;9179;50.968;3.134;2023-02-01T13:21:35;12.60;99.90
18105;DHT22;9179;50.968;3.134;2023-02-01T13:24:22;12.60;99.90
18105;DHT22;9179;50.968;3.134;2023-02-01T13:26:53;12.90;99.90
18105;DHT22;9179;50.968;3.134;2023-02-01T13:29:22;13.20;99.90
18105;DHT22;9179;50.968;3.134;2023-02-01T13:32:02;12.90;99.90
18105;DHT22;9179;50.968;3.134;2023-02-01T13:37:48;12.80;99.90
18105;DHT22;9179;50.968;3.134;2023-02-01T13:40:31;12.70;99.90
18105;DHT22;9179;50.968;3.134;2023-02-01T13:43:09;12.60;99.90
18105;DHT22;9179;50.968;3.134;2023-02-01T13:45:46;12.60;99.90
18105;DHT22;9179;50.968;3.134;2023-02-01T13:48:20;12.90;99.90
18105;DHT22;9179;50.968;3.134;2023-02-01T13:50:52;13.10;99.90
18105;DHT22;9179;50.968;3.134;2023-02-01T13:53:25;13.50;99.90
18105;DHT22;9179;50.968;3.134;2023-02-01T13:55:59;13.80;99.90
18105;DHT22;9179;50.968;3.134;2023-02-01T13:58:32;13.80;99.90
18105;DHT22;9179;50.968;3.134;2023-02-01T14:07:18;14.40;99.90
18105;DHT22;9179;50.968;3.134;2023-02-01T14:09:45;14.10;99.90
18105;DHT22;9179;50.968;3.134;2023-02-01T14:12:43;13.90;99.90
18105;DHT22;9179;50.968;3.134;2023-02-01T14:15:23;13.80;99.90
18105;DHT22;9179;50.968;3.134;2023-02-01T14:17:51;13.70;99.90
18105;DHT22;9179;50.968;3.134;2023-02-01T14:20:48;13.60;99.90
18105;DHT22;9179;50.968;3.134;2023-02-01T14:23:24;13.60;99.90
18105;DHT22;9179;50.968;3.134;2023-02-01T14:26:26;13.40;99.90
18105;DHT22;9179;50.968;3.134;2023-02-01T14:29:02;13.10;99.90
18105;DHT22;9179;50.968;3.134;2023-02-01T14:34:42;12.90;99.90
18105;DHT22;9179;50.968;3.134;2023-02-01T14:37:26;12.60;99.90
18105;DHT22;9179;50.968;3.134;2023-02-01T14:39:56;12.60;99.90
18105;DHT22;9179;50.968;3.134;2023-02-01T14:42:28;12.50;99.90
18105;DHT22;9179;50.968;3.134;2023-02-01T14:51:07;12.10;99.90
18105;DHT22;9179;50.968;3.134;2023-02-01T14:53:35;12.10;99.90
18105;DHT22;9179;50.968;3.134;2023-02-01T14:56:07;12.10;99.90
18105;DHT22;9179;50.968;3.134;2023-02-01T14:58:41;12.10;99.90
18105;DHT22;9179;50.968;3.134;2023-02-01T15:01:20;11.90;99.90
18105;DHT22;9179;50.968;3.134;2023-02-01T15:03:52;11.90;99.90
18105;DHT22;9179;50.968;3.134;2023-02-01T15:06:25;11.80;99.90
18105;DHT22;9179;50.968;3.134;2023-02-01T15:08:55;11.80;99.90
18105;DHT22;9179;50.968;3.134;2023-02-01T15:11:24;11.70;99.90
18105;DHT22;9179;50.968;3.134;2023-02-01T15:13:52;11.60;99.90
18105;DHT22;9179;50.968;3.134;2023-02-01T15:16:27;11.40;99.90
18105;DHT22;9179;50.968;3.134;2023-02-01T15:19:09;11.40;99.90
18105;DHT22;9179;50.968;3.134;2023-02-01T15:21:44;11.40;99.90
18105;DHT22;9179;50.968;3.134;2023-02-01T15:24:12;11.40;99.90
18105;DHT22;9179;50.968;3.134;2023-02-01T15:26:40;11.40;99.90
18105;DHT22;9179;50.968;3.134;2023-02-01T15:29:11;11.30;99.90
18105;DHT22;9179;50.968;3.134;2023-02-01T15:31:41;11.20;99.90
18105;DHT22;9179;50.968;3.134;2023-02-01T15:34:10;11.20;99.90
18105;DHT22;9179;50.968;3.134;2023-02-01T15:36:38;11.30;99.90
18105;DHT22;9179;50.968;3.134;2023-02-01T15:39:17;11.30;99.90
18105;DHT22;9179;50.968;3.134;2023-02-01T15:41:50;11.40;99.90
18105;DHT22;9179;50.968;3.134;2023-02-01T15:44:21;11.30;99.90
18105;DHT22;9179;50.968;3.134;2023-02-01T15:46:53;11.40;99.90
18105;DHT22;9179;50.968;3.134;2023-02-01T15:49:24;11.40;99.90
18105;DHT22;9179;50.968;3.134;2023-02-01T15:51:53;11.30;99.90
18105;DHT22;9179;50.968;3.134;2023-02-01T15:54:23;11.20;99.90
18105;DHT22;9179;50.968;3.134;2023-02-01T15:56:54;11.10;99.90
18105;DHT22;9179;50.968;3.134;2023-02-01T15:59:29;10.90;99.90
18105;DHT22;9179;50.968;3.134;2023-02-01T16:01:59;10.80;99.90
18105;DHT22;9179;50.968;3.134;2023-02-01T16:04:28;10.80;99.90
18105;DHT22;9179;50.968;3.134;2023-02-01T16:06:57;10.70;99.90
18105;DHT22;9179;50.968;3.134;2023-02-01T16:09:37;10.80;99.90
18105;DHT22;9179;50.968;3.134;2023-02-01T16:12:23;10.70;99.90
18105;DHT22;9179;50.968;3.134;2023-02-01T16:14:51;10.70;99.90
18105;DHT22;9179;50.968;3.134;2023-02-01T16:17:20;10.70;99.90
18105;DHT22;9179;50.968;3.134;2023-02-01T16:19:47;10.60;99.90
18105;DHT22;9179;50.968;3.134;2023-02-01T16:22:14;10.60;99.90
18105;DHT22;9179;50.968;3.134;2023-02-01T16:24:41;10.60;99.90
18105;DHT22;9179;50.968;3.134;2023-02-01T16:27:08;10.60;99.90
18105;DHT22;9179;50.968;3.134;2023-02-01T16:29:35;10.60;99.90
18105;DHT22;9179;50.968;3.134;2023-02-01T16:32:02;10.50;99.90
18105;DHT22;9179;50.968;3.134;2023-02-01T16:34:31;10.50;99.90
18105;DHT22;9179;50.968;3.134;2023-02-01T16:37:01;10.50;99.90
18105;DHT22;9179;50.968;3.134;2023-02-01T16:39:29;10.50;99.90
18105;DHT22;9179;50.968;3.134;2023-02-01T16:41:58;10.40;99.90
18105;DHT22;9179;50.968;3.134;2023-02-01T16:44:25;10.30;99.90
18105;DHT22;9179;50.968;3.134;2023-02-01T16:46:52;10.30;99.90
18105;DHT22;9179;50.968;3.134;2023-02-01T16:49:21;10.30;99.90
18105;DHT22;9179;50.968;3.134;2023-02-01T16:51:51;10.30;99.90
18105;DHT22;9179;50.968;3.134;2023-02-01T16:54:19;10.30;99.90
18105;DHT22;9179;50.968;3.134;2023-02-01T16:56:46;10.30;99.90
18105;DHT22;9179;50.968;3.134;2023-02-01T16:59:14;10.30;99.90
18105;DHT22;9179;50.968;3.134;2023-02-01T17:01:41;10.30;99.90